createdAt,value
2023-01-20T00:00:20.590Z,10.85
2023-01-20T00:00:53.399Z,11.02
2023-01-20T00:01:26.020Z,16.35
2023-01-20T00:01:57.848Z,16.73
2023-01-20T00:02:30.844Z,25.65
2023-01-20T00:03:03.189Z,22.27
2023-01-20T00:03:35.086Z,29.42
2023-01-20T00:04:07.954Z,50.22
2023-01-20T00:04:40.035Z,44.58
2023-01-20T00:05:12.109Z,26.25
2023-01-20T00:05:53.527Z,22.25
2023-01-20T00:06:27.695Z,23.92
2023-01-20T00:07:00.832Z,26.50
2023-01-20T00:07:34.851Z,24.67
2023-01-20T00:08:06.734Z,18.08
2023-01-20T00:08:40.008Z,13.90
2023-01-20T00:09:15.042Z,16.08
2023-01-20T00:09:46.875Z,19.45
2023-01-20T00:10:19.871Z,13.48
2023-01-20T00:10:51.756Z,17.33
2023-01-20T00:11:24.442Z,12.98
2023-01-20T00:11:57.169Z,12.85
2023-01-20T00:12:30.664Z,17.73
2023-01-20T00:13:02.444Z,14.20
2023-01-20T00:13:35.479Z,15.93
2023-01-20T00:14:07.275Z,15.50
2023-01-20T00:14:39.162Z,15.82
2023-01-20T00:15:13.029Z,15.90
2023-01-20T00:15:44.987Z,19.17
2023-01-20T00:16:16.883Z,19.67
2023-01-20T00:16:49.720Z,18.05
2023-01-20T00:17:21.578Z,15.57
2023-01-20T00:17:53.397Z,11.82
2023-01-20T00:18:26.156Z,12.57
2023-01-20T00:18:58.531Z,20.42
2023-01-20T00:19:31.310Z,19.65
2023-01-20T00:20:03.743Z,17.75
2023-01-20T00:20:35.556Z,20.52
2023-01-20T00:21:11.315Z,20.42
2023-01-20T00:21:43.543Z,24.58
2023-01-20T00:22:15.445Z,21.98
2023-01-20T00:22:48.379Z,18.83
2023-01-20T00:23:20.195Z,14.60
2023-01-20T00:23:52.052Z,14.75
2023-01-20T00:24:25.132Z,16.42
2023-01-20T00:24:56.986Z,17.85
2023-01-20T00:25:28.843Z,18.83
2023-01-20T00:26:06.268Z,16.52
2023-01-20T00:26:38.068Z,23.15
2023-01-20T00:27:10.007Z,14.18
2023-01-20T00:27:42.796Z,15.20
2023-01-20T00:28:14.620Z,17.63
2023-01-20T00:28:47.344Z,11.45
2023-01-20T00:29:20.140Z,13.73
2023-01-20T00:29:51.993Z,20.77
2023-01-20T00:30:23.862Z,18.30
2023-01-20T00:30:55.920Z,16.38
2023-01-20T00:31:30.867Z,13.18
2023-01-20T00:32:02.725Z,20.27
2023-01-20T00:32:37.735Z,24.98
2023-01-20T00:33:10.607Z,20.13
2023-01-20T00:33:43.089Z,16.15
2023-01-20T00:34:15.753Z,15.77
2023-01-20T00:34:47.651Z,16.80
2023-01-20T00:35:20.546Z,12.65
2023-01-20T00:35:52.355Z,15.93
2023-01-20T00:36:28.025Z,14.68
2023-01-20T00:37:00.942Z,17.58
2023-01-20T00:37:33.244Z,9.57
2023-01-20T00:38:05.149Z,7.70
2023-01-20T00:38:37.975Z,12.98
2023-01-20T00:39:09.830Z,12.18
2023-01-20T00:39:41.618Z,10.98
2023-01-20T00:40:14.553Z,13.18
2023-01-20T00:40:53.891Z,13.77
2023-01-20T00:41:25.779Z,11.45
2023-01-20T00:41:58.627Z,11.82
2023-01-20T00:42:30.466Z,10.35
2023-01-20T00:43:02.331Z,9.82
2023-01-20T00:43:35.186Z,18.75
2023-01-20T00:44:07.064Z,9.27
2023-01-20T00:44:38.876Z,14.55
2023-01-20T00:45:12.788Z,14.38
2023-01-20T00:45:44.711Z,10.77
2023-01-20T00:46:17.207Z,10.55
2023-01-20T00:46:50.072Z,10.00
2023-01-20T00:47:22.062Z,16.85
2023-01-20T00:47:53.877Z,13.93
2023-01-20T00:48:26.704Z,17.17
2023-01-20T00:48:58.559Z,17.05
2023-01-20T00:49:30.370Z,11.60
2023-01-20T00:50:03.160Z,12.52
2023-01-20T00:50:34.998Z,13.60
2023-01-20T00:51:07.846Z,11.68
2023-01-20T00:51:42.140Z,12.75
2023-01-20T00:52:14.386Z,13.30
2023-01-20T00:52:46.205Z,13.00
2023-01-20T00:53:18.228Z,15.15
2023-01-20T00:53:51.041Z,13.57
2023-01-20T00:54:22.847Z,11.88
2023-01-20T00:54:54.988Z,11.38
2023-01-20T00:55:27.739Z,12.45
2023-01-20T00:55:59.787Z,11.23
2023-01-20T00:56:31.664Z,12.15
2023-01-20T00:57:04.502Z,12.90
2023-01-20T00:57:36.270Z,11.43
2023-01-20T00:58:08.069Z,10.55
2023-01-20T00:58:42.910Z,14.43
2023-01-20T00:59:14.691Z,12.27
2023-01-20T00:59:46.517Z,13.35
2023-01-20T01:00:20.094Z,13.18
2023-01-20T01:00:53.550Z,12.25
2023-01-20T01:01:25.556Z,13.23
2023-01-20T01:01:58.576Z,12.32
2023-01-20T01:02:30.545Z,12.60
2023-01-20T01:03:02.448Z,10.60
2023-01-20T01:03:34.266Z,11.80
2023-01-20T01:04:07.090Z,13.10
2023-01-20T01:04:38.896Z,15.18
2023-01-20T01:05:11.109Z,11.18
2023-01-20T01:05:45.017Z,11.00
2023-01-20T01:06:18.089Z,10.35
2023-01-20T01:06:51.329Z,14.50
2023-01-20T01:07:23.151Z,13.73
2023-01-20T01:07:55.971Z,12.80
2023-01-20T01:08:27.977Z,11.57
2023-01-20T01:09:00.714Z,12.05
2023-01-20T01:09:32.640Z,12.73
2023-01-20T01:10:05.236Z,11.60
2023-01-20T01:10:38.181Z,11.40
2023-01-20T01:11:11.642Z,10.40
2023-01-20T01:11:44.459Z,14.70
2023-01-20T01:12:16.253Z,11.00
2023-01-20T01:12:48.125Z,10.13
2023-01-20T01:13:20.873Z,8.27
2023-01-20T01:13:54.814Z,10.40
2023-01-20T01:14:26.670Z,8.95
2023-01-20T01:14:59.438Z,8.93
2023-01-20T01:15:31.390Z,8.88
2023-01-20T01:16:03.319Z,9.90
2023-01-20T01:16:36.382Z,8.68
2023-01-20T01:17:08.304Z,11.40
2023-01-20T01:17:40.116Z,10.73
2023-01-20T01:18:12.874Z,10.98
2023-01-20T01:18:44.802Z,12.15
2023-01-20T01:19:19.411Z,10.45
2023-01-20T01:19:52.270Z,10.63
2023-01-20T01:20:24.806Z,14.93
2023-01-20T01:20:57.636Z,10.73
2023-01-20T01:21:29.514Z,8.63
2023-01-20T01:22:02.704Z,10.75
2023-01-20T01:22:35.510Z,9.98
2023-01-20T01:23:07.314Z,14.30
2023-01-20T01:23:40.112Z,9.77
2023-01-20T01:24:11.948Z,9.07
2023-01-20T01:24:44.285Z,9.77
2023-01-20T01:25:17.351Z,10.50
2023-01-20T01:25:49.204Z,10.43
2023-01-20T01:26:21.319Z,9.10
2023-01-20T01:26:54.722Z,13.00
2023-01-20T01:27:28.063Z,10.48
2023-01-20T01:27:59.893Z,11.27
2023-01-20T01:28:32.793Z,10.27
2023-01-20T01:29:04.599Z,9.10
2023-01-20T01:29:36.542Z,10.43
2023-01-20T01:30:10.491Z,8.73
2023-01-20T01:30:42.360Z,13.45
2023-01-20T01:31:15.310Z,8.25
2023-01-20T01:31:48.099Z,10.45
2023-01-20T01:32:20.494Z,10.10
2023-01-20T01:32:52.308Z,10.77
2023-01-20T01:33:25.145Z,10.88
2023-01-20T01:33:57.019Z,10.32
2023-01-20T01:34:28.850Z,8.85
2023-01-20T01:35:01.611Z,8.25
2023-01-20T01:35:33.426Z,11.10
2023-01-20T01:36:08.348Z,11.85
2023-01-20T01:36:41.122Z,11.02
2023-01-20T01:37:14.593Z,9.32
2023-01-20T01:37:46.393Z,9.82
2023-01-20T01:38:19.174Z,8.88
2023-01-20T01:38:57.877Z,8.40
2023-01-20T01:39:30.935Z,10.30
2023-01-20T01:40:03.840Z,9.32
2023-01-20T01:40:35.708Z,10.77
2023-01-20T01:41:07.704Z,7.88
2023-01-20T01:41:40.515Z,8.02
2023-01-20T01:42:13.240Z,8.15
2023-01-20T01:42:45.065Z,9.73
2023-01-20T01:43:23.507Z,10.35
2023-01-20T01:44:05.506Z,10.93
2023-01-20T01:44:39.301Z,11.00
2023-01-20T01:45:27.806Z,9.18
2023-01-20T01:45:59.973Z,9.57
2023-01-20T01:46:32.358Z,10.95
2023-01-20T01:47:05.158Z,9.48
2023-01-20T01:47:38.771Z,10.25
2023-01-20T01:48:10.910Z,8.27
2023-01-20T01:48:46.340Z,8.68
2023-01-20T01:49:21.192Z,8.55
2023-01-20T01:49:53.017Z,10.70
2023-01-20T01:50:30.129Z,10.55
2023-01-20T01:51:07.024Z,9.60
2023-01-20T01:51:42.565Z,9.43
2023-01-20T01:52:16.097Z,8.75
2023-01-20T01:52:53.299Z,8.52
2023-01-20T01:53:26.902Z,8.40
2023-01-20T01:54:03.876Z,8.95
2023-01-20T01:54:37.832Z,9.55
2023-01-20T01:55:10.240Z,12.15
2023-01-20T01:55:46.575Z,9.45
2023-01-20T01:56:18.403Z,8.35
2023-01-20T01:56:52.529Z,10.73
2023-01-20T01:57:24.933Z,8.13
2023-01-20T01:57:58.423Z,9.52
2023-01-20T01:58:35.481Z,9.45
2023-01-20T01:59:08.111Z,10.38
2023-01-20T01:59:40.079Z,8.38
2023-01-20T02:00:13.626Z,9.68
2023-01-20T02:00:46.615Z,8.65
2023-01-20T02:01:18.973Z,8.07
2023-01-20T02:01:53.437Z,9.85
2023-01-20T02:02:25.619Z,10.35
2023-01-20T02:02:58.370Z,11.18
2023-01-20T02:03:39.202Z,12.63
2023-01-20T02:04:12.932Z,9.63
2023-01-20T02:04:44.800Z,8.73
2023-01-20T02:05:18.767Z,8.15
2023-01-20T02:05:52.796Z,9.40
2023-01-20T02:06:27.429Z,10.10
2023-01-20T02:07:04.283Z,10.50
2023-01-20T02:07:38.051Z,8.73
2023-01-20T02:08:10.105Z,10.30
2023-01-20T02:08:43.943Z,8.77
2023-01-20T02:09:16.290Z,8.63
2023-01-20T02:09:48.153Z,15.52
2023-01-20T02:10:20.944Z,29.88
2023-01-20T02:10:52.764Z,19.83
2023-01-20T02:11:24.842Z,19.75
2023-01-20T02:12:01.782Z,10.98
2023-01-20T02:12:33.725Z,10.48
2023-01-20T02:13:06.111Z,10.85
2023-01-20T02:13:39.292Z,9.65
2023-01-20T02:14:11.551Z,9.15
2023-01-20T02:14:47.362Z,10.35
2023-01-20T02:15:27.024Z,8.98
2023-01-20T02:16:06.476Z,9.07
2023-01-20T02:16:51.290Z,9.32
2023-01-20T02:17:28.528Z,8.90
2023-01-20T02:18:19.608Z,9.93
2023-01-20T02:19:06.443Z,14.27
2023-01-20T02:20:29.597Z,8.90
2023-01-20T02:21:32.346Z,8.57
2023-01-20T02:22:24.888Z,11.25
2023-01-20T02:23:04.409Z,9.77
2023-01-20T02:23:53.722Z,8.15
2023-01-20T02:24:51.920Z,8.38
2023-01-20T02:25:47.708Z,9.88
2023-01-20T02:26:47.129Z,9.07
2023-01-20T02:27:29.876Z,7.75
2023-01-20T02:28:31.703Z,10.07
2023-01-20T02:29:51.073Z,8.40
2023-01-20T02:30:52.691Z,10.63
2023-01-20T02:31:41.270Z,8.43
2023-01-20T02:32:25.782Z,8.60
2023-01-20T02:33:04.634Z,9.55
2023-01-20T02:33:41.061Z,10.38
2023-01-20T02:34:16.668Z,8.85
2023-01-20T02:34:55.532Z,10.25
2023-01-20T02:35:35.143Z,9.25
2023-01-20T02:36:10.250Z,8.00
2023-01-20T02:36:48.098Z,9.40
2023-01-20T02:37:25.171Z,8.98
2023-01-20T02:38:11.945Z,8.70
2023-01-20T02:38:52.480Z,9.75
2023-01-20T02:39:28.592Z,8.65
2023-01-20T02:40:16.875Z,9.25
2023-01-20T02:40:55.985Z,10.77
2023-01-20T02:41:36.289Z,10.65
2023-01-20T02:42:11.226Z,8.80
2023-01-20T02:42:47.776Z,9.93
2023-01-20T02:43:25.215Z,8.90
2023-01-20T02:44:03.826Z,9.77
2023-01-20T02:44:43.887Z,10.40
2023-01-20T02:45:22.627Z,7.40
2023-01-20T02:46:02.458Z,9.63
2023-01-20T02:46:38.385Z,12.48
2023-01-20T02:47:16.222Z,8.57
2023-01-20T02:47:57.212Z,8.73
2023-01-20T02:48:35.013Z,9.20
2023-01-20T02:49:15.222Z,8.55
2023-01-20T02:49:55.262Z,19.45
2023-01-20T02:50:32.860Z,13.15
2023-01-20T02:51:10.230Z,14.85
2023-01-20T02:51:47.729Z,13.07
2023-01-20T02:52:24.510Z,9.02
2023-01-20T02:53:00.634Z,10.40
2023-01-20T02:53:38.167Z,8.20
2023-01-20T02:54:13.618Z,8.38
2023-01-20T02:54:50.636Z,10.25
2023-01-20T02:55:27.741Z,8.45
2023-01-20T02:55:59.746Z,8.15
2023-01-20T02:56:35.200Z,9.35
2023-01-20T02:57:11.908Z,9.27
2023-01-20T02:57:46.741Z,11.15
2023-01-20T02:58:23.993Z,8.75
2023-01-20T02:59:00.228Z,7.80
2023-01-20T02:59:36.246Z,8.90
2023-01-20T03:00:16.060Z,10.40
2023-01-20T03:00:53.631Z,8.65
2023-01-20T03:01:32.097Z,8.05
2023-01-20T03:02:08.366Z,9.32
2023-01-20T03:02:41.872Z,8.23
2023-01-20T03:03:20.572Z,11.10
2023-01-20T03:03:55.607Z,9.63
2023-01-20T03:04:33.075Z,8.75
2023-01-20T03:05:09.416Z,9.10
2023-01-20T03:05:45.724Z,8.70
2023-01-20T03:06:21.708Z,8.48
2023-01-20T03:06:57.865Z,9.00
2023-01-20T03:07:32.835Z,9.30
2023-01-20T03:08:08.736Z,10.48
2023-01-20T03:08:42.390Z,9.30
2023-01-20T03:09:18.572Z,9.52
2023-01-20T03:09:53.453Z,8.48
2023-01-20T03:10:30.619Z,9.35
2023-01-20T03:11:05.117Z,9.20
2023-01-20T03:11:41.983Z,9.15
2023-01-20T03:12:22.196Z,9.23
2023-01-20T03:12:58.503Z,10.77
2023-01-20T03:13:34.387Z,8.82
2023-01-20T03:14:10.534Z,10.30
2023-01-20T03:14:42.550Z,9.70
2023-01-20T03:15:16.747Z,8.40
2023-01-20T03:15:59.332Z,10.38
2023-01-20T03:16:32.493Z,9.13
2023-01-20T03:17:04.430Z,8.65
2023-01-20T03:17:36.309Z,9.43
2023-01-20T03:18:09.130Z,9.40
2023-01-20T03:18:42.353Z,13.07
2023-01-20T03:19:15.122Z,9.18
2023-01-20T03:19:48.089Z,11.55
2023-01-20T03:20:19.992Z,9.90
2023-01-20T03:20:52.072Z,10.55
2023-01-20T03:21:25.179Z,10.30
2023-01-20T03:21:57.684Z,10.25
2023-01-20T03:22:31.218Z,9.85
2023-01-20T03:23:03.048Z,10.35
2023-01-20T03:23:38.229Z,11.27
2023-01-20T03:24:10.601Z,13.48
2023-01-20T03:24:44.085Z,10.75
2023-01-20T03:25:18.742Z,9.23
2023-01-20T03:25:51.070Z,8.98
2023-01-20T03:26:23.764Z,8.65
2023-01-20T03:26:56.713Z,11.20
2023-01-20T03:27:28.617Z,10.65
2023-01-20T03:28:00.630Z,9.23
2023-01-20T03:28:33.464Z,10.02
2023-01-20T03:29:07.314Z,12.38
2023-01-20T03:29:40.177Z,10.60
2023-01-20T03:30:13.994Z,9.15
2023-01-20T03:30:45.898Z,9.93
2023-01-20T03:31:21.787Z,9.52
2023-01-20T03:31:57.999Z,12.40
2023-01-20T03:32:31.190Z,8.43
2023-01-20T03:33:04.649Z,10.27
2023-01-20T03:33:36.671Z,8.50
2023-01-20T03:34:15.357Z,10.13
2023-01-20T03:34:47.243Z,8.52
2023-01-20T03:35:19.476Z,8.88
2023-01-20T03:35:52.255Z,10.30
2023-01-20T03:36:28.330Z,10.60
2023-01-20T03:37:00.898Z,7.95
2023-01-20T03:37:32.807Z,10.25
2023-01-20T03:38:05.644Z,12.18
2023-01-20T03:38:37.596Z,9.40
2023-01-20T03:39:09.766Z,11.13
2023-01-20T03:39:42.550Z,8.30
2023-01-20T03:40:15.424Z,8.82
2023-01-20T03:40:53.785Z,8.20
2023-01-20T03:41:35.708Z,8.73
2023-01-20T03:42:11.173Z,7.95
2023-01-20T03:42:52.579Z,7.82
2023-01-20T03:43:33.144Z,9.07
2023-01-20T03:44:12.473Z,16.15
2023-01-20T03:45:00.369Z,8.15
2023-01-20T03:45:40.118Z,6.85
2023-01-20T03:46:19.505Z,6.65
2023-01-20T03:46:57.874Z,9.32
2023-01-20T03:47:43.168Z,7.75
2023-01-20T03:48:22.887Z,7.70
2023-01-20T03:49:01.131Z,10.00
2023-01-20T03:49:44.156Z,6.95
2023-01-20T03:50:28.676Z,8.93
2023-01-20T03:51:08.455Z,7.32
2023-01-20T03:51:45.661Z,7.63
2023-01-20T03:52:47.597Z,7.70
2023-01-20T03:53:29.929Z,10.07
2023-01-20T03:54:07.900Z,7.18
2023-01-20T03:54:48.538Z,7.75
2023-01-20T03:55:25.494Z,8.48
2023-01-20T03:56:03.823Z,7.57
2023-01-20T03:56:41.902Z,9.60
2023-01-20T03:57:18.267Z,6.97
2023-01-20T03:57:56.229Z,7.18
2023-01-20T03:58:31.910Z,7.50
2023-01-20T03:59:05.812Z,7.50
2023-01-20T03:59:40.200Z,6.70
2023-01-20T04:00:13.369Z,9.02
2023-01-20T04:00:49.509Z,6.78
2023-01-20T04:01:24.980Z,8.48
2023-01-20T04:01:57.121Z,7.28
2023-01-20T04:02:29.439Z,9.65
2023-01-20T04:03:06.814Z,7.78
2023-01-20T04:03:42.842Z,7.47
2023-01-20T04:04:17.662Z,8.70
2023-01-20T04:04:53.838Z,10.05
2023-01-20T04:05:26.452Z,7.72
2023-01-20T04:05:59.949Z,7.30
2023-01-20T04:06:34.935Z,10.13
2023-01-20T04:07:10.343Z,8.02
2023-01-20T04:07:45.223Z,7.93
2023-01-20T04:08:19.613Z,8.10
2023-01-20T04:08:56.791Z,8.70
2023-01-20T04:09:33.037Z,9.27
2023-01-20T04:10:12.755Z,8.45
2023-01-20T04:10:48.510Z,7.60
2023-01-20T04:11:20.749Z,6.80
2023-01-20T04:11:53.807Z,7.68
2023-01-20T04:12:25.672Z,7.07
2023-01-20T04:12:57.551Z,6.80
2023-01-20T04:13:29.377Z,7.93
2023-01-20T04:14:02.643Z,7.47
2023-01-20T04:14:35.383Z,9.07
2023-01-20T04:15:09.217Z,8.40
2023-01-20T04:15:44.366Z,8.15
2023-01-20T04:16:18.185Z,9.02
2023-01-20T04:16:52.573Z,7.45
2023-01-20T04:17:28.561Z,10.00
2023-01-20T04:18:11.486Z,7.70
2023-01-20T04:18:46.129Z,7.15
2023-01-20T04:19:19.003Z,9.23
2023-01-20T04:19:52.224Z,9.23
2023-01-20T04:20:24.391Z,6.93
2023-01-20T04:21:01.319Z,8.52
2023-01-20T04:21:36.816Z,7.10
2023-01-20T04:22:14.322Z,7.18
2023-01-20T04:22:52.361Z,8.88
2023-01-20T04:23:29.063Z,7.05
2023-01-20T04:24:06.319Z,8.25
2023-01-20T04:24:43.661Z,6.40
2023-01-20T04:25:22.133Z,11.48
2023-01-20T04:25:54.937Z,6.88
2023-01-20T04:26:26.776Z,7.00
2023-01-20T04:26:58.569Z,7.90
2023-01-20T04:27:31.336Z,6.65
2023-01-20T04:28:03.146Z,7.22
2023-01-20T04:28:34.969Z,8.18
2023-01-20T04:29:12.651Z,6.57
2023-01-20T04:29:45.017Z,5.88
2023-01-20T04:30:17.564Z,6.93
2023-01-20T04:30:50.718Z,6.05
2023-01-20T04:31:30.581Z,8.10
2023-01-20T04:32:03.770Z,7.13
2023-01-20T04:32:36.599Z,8.30
2023-01-20T04:33:08.394Z,6.68
2023-01-20T04:33:40.274Z,7.53
2023-01-20T04:34:15.364Z,5.95
2023-01-20T04:34:47.225Z,6.13
2023-01-20T04:35:20.904Z,9.93
2023-01-20T04:35:53.741Z,5.93
2023-01-20T04:36:26.528Z,5.75
2023-01-20T04:36:58.319Z,6.43
2023-01-20T04:37:30.121Z,5.93
2023-01-20T04:38:03.013Z,6.35
2023-01-20T04:38:34.879Z,6.85
2023-01-20T04:39:06.676Z,8.85
2023-01-20T04:39:39.435Z,5.88
2023-01-20T04:40:12.285Z,6.18
2023-01-20T04:40:44.133Z,11.63
2023-01-20T04:41:16.914Z,8.05
2023-01-20T04:41:49.001Z,6.45
2023-01-20T04:42:20.832Z,8.05
2023-01-20T04:42:53.708Z,6.60
2023-01-20T04:43:25.642Z,6.63
2023-01-20T04:43:57.444Z,7.05
2023-01-20T04:44:30.248Z,8.15
2023-01-20T04:45:02.062Z,7.40
2023-01-20T04:45:33.928Z,6.15
2023-01-20T04:46:06.966Z,6.60
2023-01-20T04:46:38.973Z,6.57
2023-01-20T04:47:10.785Z,8.38
2023-01-20T04:47:43.864Z,13.07
2023-01-20T04:48:15.705Z,8.60
2023-01-20T04:48:47.535Z,8.65
2023-01-20T04:49:20.314Z,8.07
2023-01-20T04:49:52.168Z,12.90
2023-01-20T04:50:25.413Z,8.60
2023-01-20T04:50:58.209Z,10.02
2023-01-20T04:51:31.709Z,8.70
2023-01-20T04:52:03.784Z,7.32
2023-01-20T04:52:36.593Z,6.38
2023-01-20T04:53:12.314Z,8.13
2023-01-20T04:53:45.166Z,6.88
2023-01-20T04:54:16.966Z,8.07
2023-01-20T04:54:48.758Z,8.30
2023-01-20T04:55:21.803Z,6.15
2023-01-20T04:55:53.627Z,6.07
2023-01-20T04:56:26.106Z,6.50
2023-01-20T04:56:58.891Z,8.40
2023-01-20T04:57:30.749Z,6.45
2023-01-20T04:58:02.549Z,7.38
2023-01-20T04:58:35.309Z,8.00
2023-01-20T04:59:07.128Z,8.07
2023-01-20T04:59:39.009Z,7.18
2023-01-20T05:00:18.395Z,7.10
2023-01-20T05:00:50.297Z,7.40
2023-01-20T05:01:22.287Z,7.05
2023-01-20T05:01:55.158Z,7.95
2023-01-20T05:02:27.104Z,6.72
2023-01-20T05:02:59.103Z,9.27
2023-01-20T05:03:31.041Z,8.48
2023-01-20T05:04:03.880Z,6.65
2023-01-20T05:04:37.987Z,8.77
2023-01-20T05:05:10.183Z,10.32
2023-01-20T05:05:44.341Z,7.28
2023-01-20T05:06:16.813Z,9.80
2023-01-20T05:06:48.583Z,7.38
2023-01-20T05:07:21.358Z,7.13
2023-01-20T05:07:53.632Z,10.35
2023-01-20T05:08:25.440Z,9.07
2023-01-20T05:08:58.219Z,9.27
2023-01-20T05:09:30.034Z,10.10
2023-01-20T05:10:01.847Z,9.18
2023-01-20T05:10:35.140Z,8.30
2023-01-20T05:11:07.217Z,9.65
2023-01-20T05:11:39.067Z,8.57
2023-01-20T05:12:10.885Z,9.38
2023-01-20T05:12:43.669Z,9.40
2023-01-20T05:13:15.850Z,9.45
2023-01-20T05:13:47.650Z,8.52
2023-01-20T05:14:20.432Z,8.52
2023-01-20T05:14:52.258Z,11.43
2023-01-20T05:15:24.073Z,10.52
2023-01-20T05:15:56.993Z,8.60
2023-01-20T05:16:31.881Z,9.00
2023-01-20T05:17:03.685Z,12.57
2023-01-20T05:17:36.475Z,8.98
2023-01-20T05:18:08.292Z,11.35
2023-01-20T05:18:40.118Z,10.25
2023-01-20T05:19:13.119Z,9.68
2023-01-20T05:19:44.942Z,8.73
2023-01-20T05:20:18.897Z,11.43
2023-01-20T05:20:53.092Z,10.20
2023-01-20T05:21:24.965Z,10.05
2023-01-20T05:21:56.776Z,14.80
2023-01-20T05:22:29.436Z,12.00
2023-01-20T05:23:02.370Z,13.32
2023-01-20T05:23:34.223Z,13.27
2023-01-20T05:24:06.609Z,10.55
2023-01-20T05:24:39.386Z,13.48
2023-01-20T05:25:11.218Z,11.45
2023-01-20T05:25:43.066Z,12.07
2023-01-20T05:26:14.902Z,12.48
2023-01-20T05:26:47.679Z,12.43
2023-01-20T05:27:19.551Z,12.52
2023-01-20T05:27:51.336Z,14.85
2023-01-20T05:28:23.554Z,13.23
2023-01-20T05:28:56.438Z,16.33
2023-01-20T05:29:28.377Z,11.80
2023-01-20T05:30:00.187Z,13.77
2023-01-20T05:30:33.085Z,15.77
2023-01-20T05:31:05.110Z,14.68
2023-01-20T05:31:37.540Z,11.90
2023-01-20T05:32:10.407Z,11.38
2023-01-20T05:32:44.407Z,12.75
2023-01-20T05:33:17.264Z,16.30
2023-01-20T05:33:49.073Z,13.07
2023-01-20T05:34:22.066Z,13.95
2023-01-20T05:34:53.920Z,14.70
2023-01-20T05:35:25.851Z,12.05
2023-01-20T05:36:00.027Z,10.75
2023-01-20T05:36:32.717Z,13.98
2023-01-20T05:37:04.530Z,12.30
2023-01-20T05:37:37.279Z,12.95
2023-01-20T05:38:09.094Z,12.80
2023-01-20T05:38:40.900Z,13.35
2023-01-20T05:39:13.714Z,12.63
2023-01-20T05:39:45.558Z,13.80
2023-01-20T05:40:17.797Z,12.45
2023-01-20T05:40:50.577Z,12.57
2023-01-20T05:41:22.405Z,13.43
2023-01-20T05:41:54.318Z,14.15
2023-01-20T05:42:27.103Z,13.38
2023-01-20T05:42:59.668Z,15.57
2023-01-20T05:43:31.678Z,13.95
2023-01-20T05:44:04.477Z,11.45
2023-01-20T05:44:36.320Z,11.02
2023-01-20T05:45:09.235Z,12.43
2023-01-20T05:45:42.959Z,11.98
2023-01-20T05:46:15.556Z,11.88
2023-01-20T05:46:47.570Z,16.15
2023-01-20T05:47:20.354Z,12.32
2023-01-20T05:47:55.209Z,12.45
2023-01-20T05:48:27.417Z,14.20
2023-01-20T05:49:00.169Z,11.90
2023-01-20T05:49:32.051Z,12.93
2023-01-20T05:50:04.240Z,12.27
2023-01-20T05:50:37.047Z,12.63
2023-01-20T05:51:10.197Z,10.80
2023-01-20T05:51:43.001Z,12.23
2023-01-20T05:52:14.810Z,12.40
2023-01-20T05:52:48.577Z,11.20
2023-01-20T05:53:22.235Z,11.90
2023-01-20T05:53:54.052Z,10.85
2023-01-20T05:54:26.215Z,11.60
2023-01-20T05:54:58.989Z,11.38
2023-01-20T05:55:30.837Z,12.75
2023-01-20T05:56:04.591Z,10.77
2023-01-20T05:56:37.414Z,12.60
2023-01-20T05:57:09.311Z,13.30
2023-01-20T05:57:41.322Z,12.27
2023-01-20T05:58:15.299Z,10.00
2023-01-20T05:58:47.107Z,14.20
2023-01-20T05:59:18.985Z,11.32
2023-01-20T05:59:52.712Z,13.98
2023-01-20T06:00:24.690Z,12.27
2023-01-20T06:01:04.822Z,11.57
2023-01-20T06:01:37.755Z,11.80
2023-01-20T06:02:09.604Z,12.65
2023-01-20T06:02:41.963Z,10.45
2023-01-20T06:03:14.797Z,12.45
2023-01-20T06:03:46.664Z,11.65
2023-01-20T06:04:19.433Z,11.10
2023-01-20T06:04:51.250Z,19.13
2023-01-20T06:05:23.184Z,11.45
2023-01-20T06:06:00.953Z,14.23
2023-01-20T06:06:34.150Z,11.80
2023-01-20T06:07:05.967Z,12.07
2023-01-20T06:07:38.797Z,11.27
2023-01-20T06:08:10.607Z,11.25
2023-01-20T06:08:42.697Z,13.23
2023-01-20T06:09:16.012Z,13.27
2023-01-20T06:09:47.853Z,12.05
2023-01-20T06:10:19.728Z,11.63
2023-01-20T06:10:54.188Z,12.60
2023-01-20T06:11:26.113Z,15.48
2023-01-20T06:11:58.957Z,11.43
2023-01-20T06:12:30.818Z,10.75
2023-01-20T06:13:02.654Z,12.38
2023-01-20T06:13:35.970Z,12.43
2023-01-20T06:14:08.034Z,12.00
2023-01-20T06:14:39.977Z,12.48
2023-01-20T06:15:13.458Z,13.65
2023-01-20T06:15:45.591Z,12.40
2023-01-20T06:16:18.638Z,12.05
2023-01-20T06:16:51.456Z,10.98
2023-01-20T06:17:23.230Z,12.55
2023-01-20T06:17:55.581Z,12.75
2023-01-20T06:18:30.059Z,12.25
2023-01-20T06:19:01.886Z,12.13
2023-01-20T06:19:33.689Z,11.23
2023-01-20T06:20:07.069Z,10.75
2023-01-20T06:20:39.036Z,10.68
2023-01-20T06:21:10.880Z,11.07
2023-01-20T06:21:46.909Z,10.65
2023-01-20T06:22:20.202Z,10.90
2023-01-20T06:22:55.979Z,10.60
2023-01-20T06:23:28.233Z,11.38
2023-01-20T06:24:01.018Z,10.00
2023-01-20T06:24:32.801Z,9.60
2023-01-20T06:25:05.268Z,11.02
2023-01-20T06:25:38.079Z,10.15
2023-01-20T06:26:13.459Z,10.73
2023-01-20T06:26:45.357Z,10.10
2023-01-20T06:27:18.308Z,12.77
2023-01-20T06:27:50.141Z,10.18
2023-01-20T06:28:22.023Z,8.65
2023-01-20T06:28:59.586Z,8.45
2023-01-20T06:29:31.640Z,8.90
2023-01-20T06:30:05.090Z,12.80
2023-01-20T06:30:38.010Z,8.52
2023-01-20T06:31:12.952Z,8.95
2023-01-20T06:31:45.925Z,11.27
2023-01-20T06:32:17.871Z,8.43
2023-01-20T06:32:49.801Z,9.40
2023-01-20T06:33:22.605Z,8.98
2023-01-20T06:33:54.518Z,9.15
2023-01-20T06:34:27.304Z,8.35
2023-01-20T06:34:59.142Z,8.40
2023-01-20T06:35:31.904Z,7.90
2023-01-20T06:36:04.798Z,9.85
2023-01-20T06:36:37.570Z,8.13
2023-01-20T06:37:10.728Z,9.70
2023-01-20T06:37:42.559Z,8.23
2023-01-20T06:38:15.317Z,7.80
2023-01-20T06:38:50.437Z,7.90
2023-01-20T06:39:23.295Z,8.63
2023-01-20T06:39:55.204Z,6.93
2023-01-20T06:40:27.116Z,8.05
2023-01-20T06:41:01.114Z,9.10
2023-01-20T06:41:33.267Z,7.40
2023-01-20T06:42:06.837Z,8.63
2023-01-20T06:42:38.672Z,7.85
2023-01-20T06:43:10.533Z,11.10
2023-01-20T06:43:43.291Z,11.15
2023-01-20T06:44:15.458Z,8.90
2023-01-20T06:44:48.297Z,8.73
2023-01-20T06:45:20.127Z,7.18
2023-01-20T06:45:52.037Z,7.85
2023-01-20T06:46:25.132Z,8.60
2023-01-20T06:46:57.894Z,8.80
2023-01-20T06:47:29.704Z,7.68
2023-01-20T06:48:02.489Z,7.80
2023-01-20T06:48:34.533Z,8.57
2023-01-20T06:49:06.344Z,8.32
2023-01-20T06:49:39.286Z,8.65
2023-01-20T06:50:11.334Z,8.15
2023-01-20T06:50:44.085Z,9.30
2023-01-20T06:51:18.008Z,9.15
2023-01-20T06:51:49.779Z,10.25
2023-01-20T06:52:24.406Z,10.85
2023-01-20T06:52:56.786Z,12.52
2023-01-20T06:53:29.902Z,8.95
2023-01-20T06:54:01.827Z,10.20
2023-01-20T06:54:36.510Z,10.90
2023-01-20T06:55:09.377Z,8.93
2023-01-20T06:55:41.427Z,9.88
2023-01-20T06:56:15.991Z,11.98
2023-01-20T06:56:47.937Z,11.30
2023-01-20T06:57:19.762Z,9.40
2023-01-20T06:57:52.618Z,8.77
2023-01-20T06:58:25.207Z,9.07
2023-01-20T06:58:58.009Z,9.63
2023-01-20T06:59:29.974Z,12.00
2023-01-20T07:00:02.944Z,11.02
2023-01-20T07:00:34.837Z,10.85
2023-01-20T07:01:10.073Z,8.95
2023-01-20T07:01:42.989Z,9.82
2023-01-20T07:02:15.064Z,10.52
2023-01-20T07:02:49.133Z,9.60
2023-01-20T07:03:21.933Z,11.70
2023-01-20T07:03:54.327Z,10.13
2023-01-20T07:04:26.125Z,9.77
2023-01-20T07:04:59.910Z,9.90
2023-01-20T07:05:31.910Z,12.45
2023-01-20T07:06:05.710Z,9.23
2023-01-20T07:06:40.209Z,8.68
2023-01-20T07:07:12.672Z,10.48
2023-01-20T07:07:46.178Z,9.65
2023-01-20T07:08:18.920Z,10.07
2023-01-20T07:08:51.002Z,9.60
2023-01-20T07:09:23.789Z,10.32
2023-01-20T07:09:55.651Z,10.60
2023-01-20T07:10:27.470Z,12.32
2023-01-20T07:11:00.807Z,11.95
2023-01-20T07:11:32.677Z,11.82
2023-01-20T07:12:05.555Z,9.00
2023-01-20T07:12:37.365Z,9.93
2023-01-20T07:13:09.134Z,8.82
2023-01-20T07:13:42.035Z,10.38
2023-01-20T07:14:13.854Z,10.13
2023-01-20T07:14:46.609Z,10.70
2023-01-20T07:15:18.489Z,14.55
2023-01-20T07:15:50.376Z,11.57
2023-01-20T07:16:23.159Z,11.35
2023-01-20T07:16:54.959Z,11.20
2023-01-20T07:17:26.743Z,10.65
2023-01-20T07:17:59.495Z,13.52
2023-01-20T07:18:31.373Z,10.48
2023-01-20T07:19:04.198Z,11.13
2023-01-20T07:19:35.993Z,10.65
2023-01-20T07:20:10.034Z,10.73
2023-01-20T07:20:43.203Z,11.73
2023-01-20T07:21:16.178Z,10.88
2023-01-20T07:21:47.996Z,14.70
2023-01-20T07:22:20.767Z,11.32
2023-01-20T07:22:53.893Z,12.48
2023-01-20T07:23:25.942Z,11.75
2023-01-20T07:24:01.517Z,11.85
2023-01-20T07:24:33.320Z,12.15
2023-01-20T07:25:05.866Z,23.13
2023-01-20T07:25:39.459Z,12.38
2023-01-20T07:26:13.255Z,19.27
2023-01-20T07:26:46.042Z,14.50